createdAt,value
2023-05-22T00:02:54.707Z,9.07
2023-05-22T00:07:59.650Z,7.82
2023-05-22T00:13:03.159Z,9.50
2023-05-22T00:18:08.251Z,10.18
2023-05-22T00:23:15.428Z,8.88
2023-05-22T00:28:19.292Z,9.10
2023-05-22T00:33:22.861Z,9.90
2023-05-22T00:38:32.307Z,11.60
2023-05-22T00:43:36.123Z,8.93
2023-05-22T00:48:39.781Z,8.82
2023-05-22T00:53:45.324Z,9.52
2023-05-22T00:58:49.217Z,10.15
2023-05-22T01:03:54.464Z,8.15
2023-05-22T01:08:59.545Z,10.05
2023-05-22T01:14:10.885Z,9.93
2023-05-22T01:19:34.486Z,10.68
2023-05-22T01:24:57.393Z,10.60
2023-05-22T01:30:27.865Z,9.45
2023-05-22T01:35:36.169Z,9.23
2023-05-22T01:40:40.560Z,12.02
2023-05-22T01:45:44.234Z,11.07
2023-05-22T01:50:53.185Z,9.93
2023-05-22T01:56:02.588Z,9.35
2023-05-22T02:01:09.530Z,8.80
2023-05-22T02:06:16.053Z,10.50
2023-05-22T02:11:22.701Z,10.88
2023-05-22T02:16:28.784Z,10.05
2023-05-22T02:21:34.027Z,11.90
2023-05-22T02:26:39.662Z,10.25
2023-05-22T02:31:43.392Z,9.82
2023-05-22T02:36:51.011Z,11.48
2023-05-22T02:41:54.539Z,10.60
2023-05-22T02:46:58.289Z,9.82
2023-05-22T02:52:03.188Z,10.75
2023-05-22T02:57:06.917Z,8.70
2023-05-22T03:02:10.409Z,10.00
2023-05-22T03:07:15.295Z,9.75
2023-05-22T03:12:18.818Z,10.00
2023-05-22T03:17:22.319Z,12.23
2023-05-22T03:22:27.421Z,10.52
2023-05-22T03:27:31.132Z,10.18
2023-05-22T03:32:37.504Z,11.02
2023-05-22T03:37:44.502Z,8.60
2023-05-22T03:42:49.402Z,9.68
2023-05-22T03:47:53.978Z,10.07
2023-05-22T03:52:58.854Z,9.68
2023-05-22T03:58:02.462Z,10.40
2023-05-22T04:03:07.282Z,9.30
2023-05-22T04:08:12.272Z,8.05
2023-05-22T04:13:16.383Z,9.07
2023-05-22T04:18:19.843Z,10.50
2023-05-22T04:23:24.740Z,9.93
2023-05-22T04:28:30.302Z,9.18
2023-05-22T04:33:35.322Z,10.95
2023-05-22T04:38:41.361Z,11.77
2023-05-22T04:43:48.457Z,10.27
2023-05-22T04:48:52.676Z,13.35
2023-05-22T04:53:58.527Z,10.77
2023-05-22T04:59:02.152Z,10.75
2023-05-22T05:04:06.228Z,11.48
2023-05-22T05:09:11.588Z,11.43
2023-05-22T05:14:15.024Z,11.18
2023-05-22T05:19:21.282Z,13.45
2023-05-22T05:24:26.278Z,15.10
2023-05-22T05:29:30.344Z,13.18
2023-05-22T05:34:39.679Z,13.48
2023-05-22T05:39:57.019Z,14.75
2023-05-22T05:45:01.035Z,14.20
2023-05-22T05:50:07.584Z,12.00
2023-05-22T05:55:13.567Z,13.45
2023-05-22T06:00:18.584Z,14.88
2023-05-22T06:05:26.975Z,13.77
2023-05-22T06:10:39.346Z,14.02
2023-05-22T06:15:52.105Z,16.85
2023-05-22T06:20:59.076Z,13.02
2023-05-22T06:26:05.154Z,14.77
2023-05-22T06:31:09.953Z,13.18
2023-05-22T06:36:16.212Z,12.85
2023-05-22T06:41:22.932Z,12.52
2023-05-22T06:46:26.623Z,13.13
2023-05-22T06:51:34.676Z,12.55
2023-05-22T06:56:44.557Z,12.13
2023-05-22T07:01:52.657Z,10.03
2023-05-22T07:07:11.291Z,11.07
2023-05-22T07:12:16.592Z,10.82
2023-05-22T07:17:22.070Z,11.45
2023-05-22T07:22:26.224Z,12.40
2023-05-22T07:27:32.225Z,13.90
2023-05-22T07:32:38.275Z,11.18
2023-05-22T07:37:43.060Z,10.80
2023-05-22T07:42:48.054Z,13.15
2023-05-22T07:47:54.038Z,16.10
2023-05-22T07:52:59.195Z,13.32
2023-05-22T07:58:05.335Z,12.27
2023-05-22T08:03:13.798Z,11.05
2023-05-22T08:08:17.457Z,10.95
2023-05-22T08:13:23.709Z,13.45
2023-05-22T08:18:29.215Z,9.65
2023-05-22T08:23:35.881Z,12.30
2023-05-22T08:28:44.157Z,9.50
2023-05-22T08:33:47.705Z,9.32
2023-05-22T08:38:51.190Z,10.13
2023-05-22T08:43:56.046Z,10.60
2023-05-22T08:48:59.911Z,9.10
2023-05-22T08:54:07.467Z,10.98
2023-05-22T08:59:12.833Z,9.30
2023-05-22T09:04:16.814Z,11.15
2023-05-22T09:09:22.418Z,11.10
2023-05-22T09:14:31.225Z,10.07
2023-05-22T09:19:35.377Z,11.13
2023-05-22T09:24:43.236Z,11.77
2023-05-22T09:30:13.320Z,10.05
2023-05-22T09:35:22.631Z,10.40
2023-05-22T09:40:28.914Z,11.67
2023-05-22T09:45:38.080Z,12.27
2023-05-22T09:50:42.498Z,13.63
2023-05-22T09:55:49.712Z,10.23
2023-05-22T10:00:56.742Z,11.35
2023-05-22T10:06:01.988Z,11.50
2023-05-22T10:11:10.364Z,14.82
2023-05-22T10:16:17.331Z,9.45
2023-05-22T10:26:30.892Z,8.55
2023-05-22T10:31:45.488Z,10.75
2023-05-22T10:37:18.182Z,9.45
2023-05-22T10:42:24.166Z,10.07
2023-05-22T10:47:29.282Z,9.38
2023-05-22T10:52:33.235Z,8.93
2023-05-22T10:57:41.132Z,9.10
2023-05-22T11:02:47.498Z,8.38
2023-05-22T11:08:11.093Z,8.23
2023-05-22T11:13:14.889Z,8.50
2023-05-22T11:18:19.759Z,8.75
2023-05-22T11:23:26.416Z,9.25
2023-05-22T11:28:31.780Z,10.10
2023-05-22T11:33:36.706Z,10.40
2023-05-22T11:38:41.145Z,7.93
2023-05-22T11:43:45.338Z,8.73
2023-05-22T11:48:50.222Z,9.52
2023-05-22T11:53:53.807Z,7.57
2023-05-22T11:59:00.287Z,9.10
2023-05-22T12:04:06.012Z,9.00
2023-05-22T12:09:09.799Z,9.80
2023-05-22T12:14:13.390Z,8.70
2023-05-22T12:19:18.961Z,8.23
2023-05-22T12:24:23.598Z,10.07
2023-05-22T12:29:27.055Z,8.57
2023-05-22T12:34:34.915Z,10.15
2023-05-22T12:39:38.582Z,9.15
2023-05-22T12:44:42.076Z,7.53
2023-05-22T12:49:47.019Z,8.52
2023-05-22T12:54:51.425Z,8.43
2023-05-22T12:59:54.894Z,8.70
2023-05-22T13:04:59.844Z,10.10
2023-05-22T13:10:04.950Z,8.20
2023-05-22T13:15:11.603Z,7.15
2023-05-22T13:20:16.431Z,8.65
2023-05-22T13:25:20.031Z,8.90
2023-05-22T13:30:23.487Z,8.80
2023-05-22T13:35:28.529Z,7.85
2023-05-22T13:40:31.968Z,8.55
2023-05-22T13:45:38.741Z,8.85
2023-05-22T13:50:44.054Z,9.10
2023-05-22T13:55:47.784Z,9.77
2023-05-22T14:00:52.845Z,8.25
2023-05-22T14:05:57.787Z,7.15
2023-05-22T14:11:01.299Z,7.35
2023-05-22T14:16:04.920Z,6.85
2023-05-22T14:21:09.763Z,11.02
2023-05-22T14:26:14.462Z,7.53
2023-05-22T14:31:18.894Z,9.63
2023-05-22T14:36:23.806Z,15.60
2023-05-22T14:41:27.297Z,11.35
2023-05-22T14:46:31.264Z,10.20
2023-05-22T14:51:36.234Z,9.02
2023-05-22T14:56:39.636Z,10.45
2023-05-22T15:01:43.092Z,10.00
2023-05-22T15:06:47.910Z,10.55
2023-05-22T15:11:51.412Z,12.48
2023-05-22T15:16:54.920Z,10.65
2023-05-22T15:22:08.930Z,11.02
2023-05-22T15:27:19.287Z,12.40
2023-05-22T15:32:22.832Z,11.93
2023-05-22T15:37:30.222Z,9.93
2023-05-22T15:42:35.096Z,7.80
2023-05-22T15:47:38.865Z,9.18
2023-05-22T15:52:43.888Z,8.57
2023-05-22T15:57:47.401Z,8.38
2023-05-22T16:02:51.270Z,9.98
2023-05-22T16:07:56.247Z,8.85
2023-05-22T16:13:00.135Z,5.75
2023-05-22T16:18:03.951Z,5.57
2023-05-22T16:23:08.936Z,5.57
2023-05-22T16:28:12.384Z,6.15
2023-05-22T16:33:15.851Z,6.22
2023-05-22T16:38:20.948Z,5.63
2023-05-22T16:43:24.676Z,6.32
2023-05-22T16:48:28.265Z,5.15
2023-05-22T16:53:33.134Z,6.03
2023-05-22T16:58:39.068Z,5.68
2023-05-22T17:03:42.764Z,5.45
2023-05-22T17:08:47.663Z,5.15
2023-05-22T17:13:51.170Z,5.07
2023-05-22T17:18:55.077Z,4.72
2023-05-22T17:23:59.975Z,4.68
2023-05-22T17:29:03.701Z,8.30
2023-05-22T17:34:07.332Z,6.30
2023-05-22T17:39:12.316Z,19.08
2023-05-22T17:44:15.726Z,10.68
2023-05-22T17:49:19.509Z,7.72
2023-05-22T17:54:24.258Z,7.03
2023-05-22T17:59:27.801Z,6.80
2023-05-22T18:04:31.273Z,8.48
2023-05-22T18:09:36.001Z,10.35
2023-05-22T18:14:39.815Z,10.35
2023-05-22T18:19:43.268Z,7.75
2023-05-22T18:24:48.103Z,7.95
2023-05-22T18:29:51.805Z,7.22
2023-05-22T18:34:55.340Z,7.40
2023-05-22T18:40:05.267Z,8.85
2023-05-22T18:45:11.456Z,8.75
2023-05-22T18:50:16.199Z,7.90
2023-05-22T18:55:25.399Z,7.72
2023-05-22T19:00:31.913Z,7.43
2023-05-22T19:05:47.020Z,8.65
2023-05-22T19:11:06.595Z,10.85
2023-05-22T19:16:12.270Z,7.78
2023-05-22T19:21:20.565Z,7.45
2023-05-22T19:26:28.124Z,9.10
2023-05-22T19:31:32.024Z,7.28
2023-05-22T19:36:38.940Z,7.15
2023-05-22T19:41:45.075Z,7.00
2023-05-22T19:47:00.036Z,9.73
2023-05-22T19:52:21.408Z,7.03
2023-05-22T19:57:35.114Z,9.00
2023-05-22T20:02:48.228Z,8.32
2023-05-22T20:07:56.205Z,9.18
2023-05-22T20:13:04.918Z,8.07
2023-05-22T20:18:10.922Z,8.32
2023-05-22T20:23:17.610Z,7.82
2023-05-22T20:28:28.358Z,9.65
2023-05-22T20:33:33.266Z,8.25
2023-05-22T20:38:38.195Z,6.78
2023-05-22T20:43:44.023Z,7.30
2023-05-22T20:48:52.655Z,7.32
2023-05-22T20:54:05.402Z,10.10
2023-05-22T20:59:19.830Z,7.28
2023-05-22T21:04:25.469Z,6.72
2023-05-22T21:09:32.685Z,7.38
2023-05-22T21:14:44.130Z,7.65
2023-05-22T21:19:51.548Z,7.55
2023-05-22T21:24:59.760Z,7.35
2023-05-22T21:30:07.493Z,7.53
2023-05-22T21:35:12.243Z,7.55
2023-05-22T21:40:22.813Z,7.70
2023-05-22T21:45:31.229Z,10.93
2023-05-22T21:50:36.355Z,8.38
2023-05-22T21:55:39.841Z,10.10
2023-05-22T22:00:44.810Z,10.13
2023-05-22T22:05:50.460Z,9.48
2023-05-22T22:10:54.088Z,8.30
2023-05-22T22:15:59.470Z,9.23
2023-05-22T22:21:03.101Z,9.82
2023-05-22T22:26:06.653Z,6.90
2023-05-22T22:31:11.507Z,9.60
2023-05-22T22:36:15.068Z,7.68
2023-05-22T22:41:18.643Z,7.68
2023-05-22T22:46:23.473Z,10.60
2023-05-22T22:51:26.970Z,10.43
2023-05-22T22:56:30.385Z,10.95
2023-05-22T23:01:35.271Z,12.43
2023-05-22T23:06:41.739Z,13.95
2023-05-22T23:11:45.256Z,14.70
2023-05-22T23:16:50.119Z,15.90
2023-05-22T23:21:53.688Z,17.10
2023-05-22T23:26:57.124Z,13.35
2023-05-22T23:32:02.057Z,12.80
2023-05-22T23:37:06.292Z,17.83
2023-05-22T23:42:11.137Z,18.63
2023-05-22T23:47:39.824Z,15.48
2023-05-22T23:52:43.276Z,23.90
2023-05-22T23:57:46.735Z,25.05
